createdAt,value
2022-09-16T00:07:25.807Z,24.93
2022-09-16T00:22:28.004Z,23.91
2022-09-16T00:37:30.321Z,23.99
2022-09-16T00:52:32.588Z,24.17
2022-09-16T01:07:34.839Z,24.19
2022-09-16T01:22:37.071Z,24.2
2022-09-16T01:37:39.317Z,23.23
2022-09-16T01:52:41.730Z,23.13
2022-09-16T02:07:43.988Z,21.79
2022-09-16T02:22:46.158Z,21.98
2022-09-16T02:37:48.419Z,21.35
2022-09-16T02:52:50.701Z,21.43
2022-09-16T03:07:53.043Z,21.26
2022-09-16T03:22:55.318Z,20.77
2022-09-16T03:37:57.557Z,20.63
2022-09-16T03:52:59.780Z,20.71
2022-09-16T04:08:01.982Z,20.29
2022-09-16T04:23:04.254Z,20.29
2022-09-16T04:38:06.491Z,20.12
2022-09-16T04:53:08.686Z,19.45
2022-09-16T05:08:10.915Z,19.61
2022-09-16T05:23:13.112Z,19.13
2022-09-16T05:38:15.442Z,19.12
2022-09-16T05:53:17.838Z,19.21
2022-09-16T06:08:20.024Z,18.95
2022-09-16T06:23:22.327Z,18.28
2022-09-16T06:38:24.619Z,18.29
2022-09-16T06:53:26.855Z,18.33
2022-09-16T07:08:29.140Z,17.87
2022-09-16T07:23:31.336Z,17.57
2022-09-16T07:38:33.548Z,17.71
2022-09-16T07:53:36.021Z,17.65
2022-09-16T08:08:38.249Z,17.36
2022-09-16T08:23:40.676Z,17.26
2022-09-16T08:38:42.883Z,17.53
2022-09-16T08:53:45.178Z,17.52
2022-09-16T09:08:47.427Z,17.25
2022-09-16T09:23:49.623Z,17.51
2022-09-16T09:38:51.868Z,17.12
2022-09-16T09:53:54.093Z,17.14
2022-09-16T10:08:56.297Z,17.05
2022-09-16T10:23:58.526Z,17.16
2022-09-16T10:39:04.474Z,17.28
2022-09-16T10:54:07.432Z,17.21
2022-09-16T11:09:09.722Z,16.96
2022-09-16T11:24:11.985Z,17.23
2022-09-16T11:39:14.205Z,17.05
2022-09-16T11:54:16.587Z,16.77
2022-09-16T12:09:18.841Z,17.15
2022-09-16T12:24:21.159Z,16.98
2022-09-16T12:39:23.373Z,16.86
2022-09-16T12:54:25.570Z,16.54
2022-09-16T13:09:27.964Z,16.42
2022-09-16T13:24:30.378Z,16.29
2022-09-16T13:39:32.603Z,15.98
2022-09-16T13:54:43.191Z,16.35
2022-09-16T14:09:56.026Z,16.06
2022-09-16T14:25:06.898Z,16.26
2022-09-16T14:40:21.539Z,16.19
2022-09-16T14:55:23.883Z,16.02
2022-09-16T15:10:26.103Z,16.67
2022-09-16T15:25:28.333Z,17
2022-09-16T15:40:30.938Z,16.11
2022-09-16T15:55:33.233Z,16.59
2022-09-16T16:10:35.501Z,17.02
2022-09-16T16:25:37.819Z,16.77
2022-09-16T16:40:40.157Z,16.44
2022-09-16T16:55:42.387Z,16.9
2022-09-16T17:10:44.576Z,17.43
2022-09-16T17:25:46.805Z,17.23
2022-09-16T17:40:49.040Z,17.76
2022-09-16T17:55:51.301Z,17.98
2022-09-16T18:10:53.658Z,18.27
2022-09-16T18:25:56.111Z,17.88
2022-09-16T18:40:58.392Z,18.85
2022-09-16T18:56:00.764Z,19.94
2022-09-16T19:11:02.946Z,20.02
2022-09-16T19:26:05.254Z,20.58
2022-09-16T19:41:07.586Z,20.98
2022-09-16T19:56:09.859Z,21.57
2022-09-16T20:11:12.197Z,21.86
2022-09-16T20:26:14.446Z,21.85
2022-09-16T20:41:16.642Z,22.3
2022-09-16T20:56:18.911Z,21.99
2022-09-16T21:11:21.167Z,22.61
2022-09-16T21:26:23.805Z,23.32
2022-09-16T21:41:26.161Z,22.63
2022-09-16T21:56:28.431Z,20.5
2022-09-16T22:11:30.634Z,18.28
2022-09-16T22:26:32.836Z,18.45
2022-09-16T22:41:35.039Z,18.66
2022-09-16T22:56:37.268Z,18.21
2022-09-16T23:11:39.466Z,18.38
2022-09-16T23:26:41.689Z,18.26
2022-09-16T23:41:43.926Z,17.98
2022-09-16T23:56:46.127Z,17.32
